createdAt,value
2022-10-13T00:01:59.096Z,111
2022-10-13T00:03:58.982Z,101
2022-10-13T00:06:59.240Z,86
2022-10-13T00:09:58.962Z,111
2022-10-13T00:11:59.008Z,118
2022-10-13T00:14:59.037Z,87
2022-10-13T00:17:58.975Z,95
2022-10-13T00:19:59.014Z,86
2022-10-13T00:22:59.000Z,90
2022-10-13T00:24:59.114Z,119
2022-10-13T00:27:58.993Z,120
2022-10-13T00:30:59.050Z,113
2022-10-13T00:33:00.957Z,81
2022-10-13T00:35:58.980Z,99
2022-10-13T00:37:58.977Z,81
2022-10-13T00:39:59.647Z,77
2022-10-13T00:41:59.002Z,88
2022-10-13T00:44:58.982Z,87
2022-10-13T00:47:58.991Z,72
2022-10-13T00:50:58.970Z,83
2022-10-13T00:52:59.006Z,120
2022-10-13T00:54:59.037Z,78
2022-10-13T00:56:59.074Z,95
2022-10-13T00:59:58.973Z,100
2022-10-13T01:02:59.103Z,89
2022-10-13T01:05:58.984Z,83
2022-10-13T01:08:58.960Z,85
2022-10-13T01:10:58.981Z,100
2022-10-13T01:12:58.987Z,147
2022-10-13T01:15:58.987Z,76
2022-10-13T01:17:58.993Z,81
2022-10-13T01:20:59.012Z,124
2022-10-13T01:22:59.438Z,78
2022-10-13T01:25:59.105Z,78
2022-10-13T01:28:59.030Z,88
2022-10-13T01:31:59.009Z,82
2022-10-13T01:33:59.028Z,56
2022-10-13T01:36:59.047Z,93
2022-10-13T01:39:58.997Z,72
2022-10-13T01:41:59.231Z,94
2022-10-13T01:44:59.001Z,56
2022-10-13T01:46:59.010Z,75
2022-10-13T01:48:59.014Z,79
2022-10-13T01:51:59.071Z,64
2022-10-13T01:53:59.014Z,83
2022-10-13T01:56:59.138Z,82
2022-10-13T02:00:59.049Z,82
2022-10-13T02:03:58.995Z,84
2022-10-13T02:05:59.006Z,73
2022-10-13T02:07:59.435Z,81
2022-10-13T02:10:59.004Z,55
2022-10-13T02:12:58.995Z,97
2022-10-13T02:15:59.020Z,95
2022-10-13T02:17:59.032Z,66
2022-10-13T02:20:59.028Z,57
2022-10-13T02:23:58.989Z,49
2022-10-13T02:25:59.363Z,77
2022-10-13T02:28:59.137Z,62
2022-10-13T02:31:59.257Z,87
2022-10-13T02:33:59.030Z,61
2022-10-13T02:36:59.787Z,48
2022-10-13T02:39:59.053Z,71
2022-10-13T02:41:59.010Z,62
2022-10-13T02:44:59.004Z,76
2022-10-13T02:47:59.012Z,88
2022-10-13T02:49:59.651Z,38
2022-10-13T02:52:59.212Z,147
2022-10-13T02:54:59.027Z,61
2022-10-13T02:56:59.004Z,50
2022-10-13T02:59:58.992Z,55
2022-10-13T03:01:59.016Z,51
2022-10-13T03:04:59.025Z,75
2022-10-13T03:06:59.034Z,53
2022-10-13T03:09:59.032Z,66
2022-10-13T03:12:59.012Z,92
2022-10-13T03:14:59.038Z,72
2022-10-13T03:17:59.008Z,64
2022-10-13T03:20:59.058Z,62
2022-10-13T03:22:59.057Z,58
2022-10-13T03:25:59.017Z,102
2022-10-13T03:28:59.052Z,55
2022-10-13T03:31:59.004Z,45
2022-10-13T03:33:59.201Z,58
2022-10-13T03:36:59.069Z,56
2022-10-13T03:39:59.011Z,65
2022-10-13T03:41:59.106Z,83
2022-10-13T03:44:59.075Z,47
2022-10-13T03:47:59.364Z,60
2022-10-13T03:49:59.043Z,65
2022-10-13T03:52:59.032Z,58
2022-10-13T03:55:59.002Z,70
2022-10-13T03:57:59.071Z,62
2022-10-13T04:00:59.053Z,42
2022-10-13T04:04:00.730Z,34
2022-10-13T04:06:59.017Z,45
2022-10-13T04:09:59.000Z,37
2022-10-13T04:12:58.982Z,39
2022-10-13T04:14:59.091Z,52
2022-10-13T04:16:59.040Z,32
2022-10-13T04:19:59.137Z,47
2022-10-13T04:22:59.016Z,42
2022-10-13T04:24:59.644Z,66
2022-10-13T04:27:59.012Z,85
2022-10-13T04:30:59.013Z,56
2022-10-13T04:32:59.504Z,41
2022-10-13T04:35:59.353Z,71
2022-10-13T04:37:59.019Z,69
2022-10-13T04:40:59.007Z,53
2022-10-13T04:42:59.011Z,67
2022-10-13T04:44:59.483Z,76
2022-10-13T04:47:59.011Z,47
2022-10-13T04:49:59.323Z,71
2022-10-13T04:52:59.043Z,58
2022-10-13T04:55:59.268Z,50
2022-10-13T04:58:14.589Z,63
2022-10-13T05:02:59.279Z,51
2022-10-13T05:05:59.037Z,27
2022-10-13T05:08:59.558Z,60
2022-10-13T05:11:59.026Z,54
2022-10-13T05:14:59.034Z,59
2022-10-13T05:16:59.057Z,54
2022-10-13T05:19:59.013Z,36
2022-10-13T05:21:59.052Z,48
2022-10-13T05:24:59.689Z,95
2022-10-13T05:26:59.023Z,62
2022-10-13T05:28:59.175Z,74
2022-10-13T05:31:59.019Z,69
2022-10-13T05:34:59.967Z,42
2022-10-13T05:37:02.202Z,52
2022-10-13T05:39:59.019Z,40
2022-10-13T05:42:59.048Z,44
2022-10-13T05:45:59.067Z,52
2022-10-13T05:49:00.271Z,88
2022-10-13T05:51:59.009Z,89
2022-10-13T05:53:59.176Z,87
2022-10-13T05:56:59.083Z,117
2022-10-13T05:58:59.259Z,97
2022-10-13T06:01:59.061Z,99
2022-10-13T06:04:59.035Z,109
2022-10-13T06:06:59.037Z,123
2022-10-13T06:09:59.162Z,95
2022-10-13T06:11:59.013Z,107
2022-10-13T06:14:59.041Z,121
2022-10-13T06:16:59.030Z,84
2022-10-13T06:19:59.030Z,103
2022-10-13T06:22:59.046Z,71
2022-10-13T06:25:59.034Z,141
2022-10-13T06:27:59.017Z,85
2022-10-13T06:29:59.115Z,126
2022-10-13T06:31:59.051Z,95
2022-10-13T06:34:59.180Z,154
2022-10-13T06:37:59.015Z,147
2022-10-13T06:40:59.037Z,92
2022-10-13T06:43:59.142Z,125
2022-10-13T06:45:59.037Z,121
2022-10-13T06:47:59.067Z,104
2022-10-13T06:50:59.042Z,171
2022-10-13T06:52:59.039Z,123
2022-10-13T06:55:59.054Z,159
2022-10-13T06:57:59.050Z,161
2022-10-13T07:00:59.101Z,148
2022-10-13T07:02:59.062Z,112
2022-10-13T07:05:59.030Z,94
2022-10-13T07:07:59.056Z,133
2022-10-13T07:09:59.375Z,108
2022-10-13T07:12:59.050Z,81
2022-10-13T07:15:59.138Z,90
2022-10-13T07:18:59.273Z,93
2022-10-13T07:20:59.056Z,42
2022-10-13T07:22:59.081Z,65
2022-10-13T07:25:59.271Z,56
2022-10-13T07:27:59.078Z,71
2022-10-13T07:29:59.191Z,51
2022-10-13T07:31:59.093Z,50
2022-10-13T07:35:00.026Z,72
2022-10-13T07:37:59.060Z,64
2022-10-13T07:40:00.106Z,116
2022-10-13T07:42:59.026Z,50
2022-10-13T07:44:59.081Z,71
2022-10-13T07:47:59.030Z,65
2022-10-13T07:49:59.063Z,61
2022-10-13T07:51:59.081Z,52
2022-10-13T07:53:59.192Z,62
2022-10-13T07:56:59.060Z,70
2022-10-13T08:00:00.850Z,80
2022-10-13T08:01:59.149Z,50
2022-10-13T08:04:59.196Z,74
2022-10-13T08:06:59.061Z,92
2022-10-13T08:09:59.074Z,97
2022-10-13T08:12:59.043Z,84
2022-10-13T08:15:00.474Z,65
2022-10-13T08:16:59.098Z,63
2022-10-13T08:20:01.845Z,117
2022-10-13T08:22:00.065Z,105
2022-10-13T08:23:59.754Z,61
2022-10-13T08:26:59.061Z,92
2022-10-13T08:29:59.241Z,192
2022-10-13T08:31:59.074Z,163
2022-10-13T08:34:00.013Z,192
2022-10-13T08:35:59.097Z,175
2022-10-13T08:38:59.180Z,167
2022-10-13T08:41:59.082Z,167
2022-10-13T08:45:22.083Z,189
2022-10-13T08:47:59.099Z,219
2022-10-13T08:50:59.058Z,198
2022-10-13T08:53:59.099Z,186
2022-10-13T08:58:59.055Z,171
2022-10-13T09:00:59.121Z,195
2022-10-13T09:02:59.077Z,155
2022-10-13T09:05:59.238Z,213
2022-10-13T09:08:59.048Z,319
2022-10-13T09:11:59.099Z,212
2022-10-13T09:14:59.445Z,147
2022-10-13T09:17:59.091Z,185
2022-10-13T09:20:59.376Z,155
2022-10-13T09:23:59.096Z,118
2022-10-13T09:26:59.048Z,194
2022-10-13T09:28:59.086Z,200
2022-10-13T09:31:59.058Z,165
2022-10-13T09:33:59.046Z,171
2022-10-13T09:35:59.641Z,164
2022-10-13T09:37:59.091Z,200
2022-10-13T09:40:59.709Z,179
2022-10-13T09:42:59.108Z,149
2022-10-13T09:45:59.047Z,144
2022-10-13T09:47:59.121Z,178
2022-10-13T09:50:59.117Z,157
2022-10-13T09:52:59.052Z,154
2022-10-13T09:54:59.561Z,162
2022-10-13T09:57:59.058Z,198
2022-10-13T09:59:59.104Z,128
2022-10-13T10:02:59.068Z,166
2022-10-13T10:05:59.549Z,171
2022-10-13T10:07:59.087Z,164
2022-10-13T10:09:59.103Z,141
2022-10-13T10:12:59.035Z,168
2022-10-13T10:14:59.619Z,185
2022-10-13T10:17:59.062Z,136
2022-10-13T10:19:59.365Z,183
2022-10-13T10:23:14.766Z,155
2022-10-13T10:25:59.072Z,151
2022-10-13T10:27:59.362Z,200
2022-10-13T10:30:59.065Z,150
2022-10-13T10:32:59.064Z,146
2022-10-13T10:35:59.159Z,193
2022-10-13T10:37:59.335Z,162
2022-10-13T10:40:59.080Z,151
2022-10-13T10:42:59.090Z,178
2022-10-13T10:45:59.095Z,132
2022-10-13T10:47:59.796Z,168
2022-10-13T10:50:59.099Z,174
2022-10-13T10:52:59.098Z,134
2022-10-13T10:55:59.159Z,141
2022-10-13T10:57:59.157Z,178
2022-10-13T11:00:59.314Z,184
2022-10-13T11:03:59.096Z,147
2022-10-13T11:05:59.106Z,128
2022-10-13T11:08:59.107Z,150
2022-10-13T11:11:59.066Z,159
2022-10-13T11:13:59.113Z,132
2022-10-13T11:16:59.186Z,148
2022-10-13T11:18:59.269Z,130
2022-10-13T11:21:59.307Z,170
2022-10-13T11:24:01.958Z,143
2022-10-13T11:26:59.362Z,148
2022-10-13T11:29:59.149Z,181
2022-10-13T11:32:59.095Z,147
2022-10-13T11:34:59.103Z,162
2022-10-13T11:38:06.639Z,154
2022-10-13T11:40:59.261Z,196
2022-10-13T11:43:59.652Z,149
2022-10-13T11:45:59.080Z,198
2022-10-13T11:48:59.207Z,206
2022-10-13T11:51:59.090Z,177
2022-10-13T11:54:59.358Z,137
2022-10-13T11:57:59.086Z,210
2022-10-13T12:00:59.227Z,172
2022-10-13T12:02:59.216Z,231
2022-10-13T12:05:59.170Z,195
2022-10-13T12:07:59.118Z,186
2022-10-13T12:10:59.444Z,239
2022-10-13T12:12:59.092Z,224
2022-10-13T12:15:59.093Z,230
2022-10-13T12:17:59.078Z,208
2022-10-13T12:19:59.244Z,164
2022-10-13T12:21:59.137Z,217
2022-10-13T12:24:59.235Z,233
2022-10-13T12:26:59.127Z,178
2022-10-13T12:29:59.243Z,195
2022-10-13T12:31:59.408Z,266
2022-10-13T12:34:59.406Z,193
2022-10-13T12:36:59.132Z,192
2022-10-13T12:38:59.141Z,198
2022-10-13T12:42:02.282Z,211
2022-10-13T12:43:59.989Z,234
2022-10-13T12:46:59.293Z,174
2022-10-13T12:49:59.096Z,197
2022-10-13T12:51:59.209Z,195
2022-10-13T12:53:59.127Z,211
2022-10-13T12:56:59.247Z,195
2022-10-13T12:58:59.121Z,214
2022-10-13T13:01:59.320Z,215
2022-10-13T13:04:59.078Z,206
2022-10-13T13:06:59.153Z,221
2022-10-13T13:08:59.177Z,78
2022-10-13T13:11:59.391Z,131
2022-10-13T13:13:59.134Z,258
2022-10-13T13:16:59.940Z,63
2022-10-13T13:18:59.153Z,176
2022-10-13T13:21:59.180Z,214
2022-10-13T13:23:59.422Z,168
2022-10-13T13:25:59.093Z,194
2022-10-13T13:28:59.460Z,154
2022-10-13T13:30:59.374Z,204
2022-10-13T13:33:59.418Z,186
2022-10-13T13:35:59.112Z,58
2022-10-13T13:39:00.012Z,46
2022-10-13T13:41:01.438Z,122
2022-10-13T13:43:59.412Z,172
2022-10-13T13:45:59.107Z,232
2022-10-13T13:48:00.753Z,144
2022-10-13T13:50:59.116Z,152
2022-10-13T13:52:59.649Z,110
2022-10-13T13:55:59.108Z,174
2022-10-13T13:58:59.218Z,137
2022-10-13T14:01:59.168Z,102
2022-10-13T14:03:59.302Z,164
2022-10-13T14:06:59.376Z,195
2022-10-13T14:10:00.931Z,141
2022-10-13T14:12:59.154Z,188
2022-10-13T14:15:59.153Z,149
2022-10-13T14:17:59.138Z,180
2022-10-13T14:20:59.640Z,142
2022-10-13T14:22:59.106Z,130
2022-10-13T14:24:59.171Z,190
2022-10-13T14:27:59.118Z,185
2022-10-13T14:29:59.160Z,163
2022-10-13T14:32:59.134Z,188
2022-10-13T14:35:59.258Z,179
2022-10-13T14:38:59.131Z,173
2022-10-13T14:41:59.179Z,127
2022-10-13T14:44:59.141Z,184
2022-10-13T14:46:59.199Z,237
2022-10-13T14:49:59.380Z,115
2022-10-13T14:52:59.163Z,163
2022-10-13T14:54:59.180Z,165
2022-10-13T14:57:59.272Z,165
2022-10-13T15:00:59.131Z,124
2022-10-13T15:02:59.318Z,120
2022-10-13T15:05:59.129Z,141
2022-10-13T15:08:59.786Z,149
2022-10-13T15:10:59.144Z,149
2022-10-13T15:13:59.163Z,144
2022-10-13T15:16:59.141Z,201
2022-10-13T15:19:00.009Z,125
2022-10-13T15:21:59.158Z,130
2022-10-13T15:24:59.173Z,165
2022-10-13T15:27:59.133Z,214
2022-10-13T15:29:59.744Z,170
2022-10-13T15:32:59.134Z,168
2022-10-13T15:34:59.116Z,188
2022-10-13T15:36:59.178Z,185
2022-10-13T15:39:59.165Z,201
2022-10-13T15:41:59.198Z,164
2022-10-13T15:45:10.999Z,207
2022-10-13T15:47:59.157Z,151
2022-10-13T15:49:59.424Z,142
2022-10-13T15:52:59.211Z,160
2022-10-13T15:54:59.150Z,259
2022-10-13T15:56:59.556Z,183
2022-10-13T15:59:59.241Z,172
2022-10-13T16:01:59.387Z,180
2022-10-13T16:04:59.198Z,147
2022-10-13T16:07:59.267Z,168
2022-10-13T16:09:59.256Z,186
2022-10-13T16:12:59.221Z,209
2022-10-13T16:15:59.158Z,173
2022-10-13T16:17:59.267Z,131
2022-10-13T16:20:59.447Z,217
2022-10-13T16:24:14.937Z,195
2022-10-13T16:25:59.186Z,190
2022-10-13T16:28:59.325Z,174
2022-10-13T16:31:59.216Z,182
2022-10-13T16:33:59.530Z,157
2022-10-13T16:36:59.202Z,201
2022-10-13T16:39:59.346Z,256
2022-10-13T16:41:59.499Z,243
2022-10-13T16:44:59.401Z,179
2022-10-13T16:47:59.149Z,202
2022-10-13T16:51:02.646Z,172
2022-10-13T16:52:59.310Z,216
2022-10-13T16:55:59.140Z,127
2022-10-13T16:57:59.142Z,185
2022-10-13T16:59:59.151Z,164
2022-10-13T17:01:59.463Z,148
2022-10-13T17:04:59.160Z,134
2022-10-13T17:07:59.162Z,128
2022-10-13T17:10:59.147Z,159
2022-10-13T17:12:59.365Z,119
2022-10-13T17:15:59.170Z,149
2022-10-13T17:17:59.204Z,158
2022-10-13T17:20:59.154Z,118
2022-10-13T17:22:59.196Z,99
2022-10-13T17:24:59.200Z,127
2022-10-13T17:26:59.190Z,134
2022-10-13T17:28:59.483Z,170
2022-10-13T17:31:59.189Z,116
2022-10-13T17:33:59.335Z,137
2022-10-13T17:36:59.403Z,132
2022-10-13T17:39:59.174Z,141
2022-10-13T17:42:59.134Z,154
2022-10-13T17:44:59.218Z,134
2022-10-13T17:47:59.259Z,168
2022-10-13T17:50:59.145Z,161
2022-10-13T17:52:59.222Z,165
2022-10-13T17:56:59.197Z,126
2022-10-13T17:59:59.266Z,121
2022-10-13T18:02:59.154Z,115
2022-10-13T18:04:59.224Z,105
2022-10-13T18:07:59.187Z,100
2022-10-13T18:11:07.887Z,98
2022-10-13T18:12:59.237Z,126
2022-10-13T18:15:59.216Z,103
2022-10-13T18:18:59.170Z,146
2022-10-13T18:20:59.576Z,118
2022-10-13T18:23:59.220Z,110
2022-10-13T18:26:59.142Z,144
2022-10-13T18:28:59.302Z,121
2022-10-13T18:31:59.214Z,101
2022-10-13T18:34:59.157Z,136
2022-10-13T18:36:59.341Z,130
2022-10-13T18:39:59.214Z,138
2022-10-13T18:42:59.181Z,137
2022-10-13T18:44:59.199Z,149
2022-10-13T18:46:59.335Z,147
2022-10-13T18:48:59.423Z,146
2022-10-13T18:51:59.233Z,127
2022-10-13T18:54:59.341Z,153
2022-10-13T18:57:59.198Z,168
2022-10-13T18:59:59.211Z,185
2022-10-13T19:02:59.541Z,158
2022-10-13T19:05:59.215Z,134
2022-10-13T19:08:59.743Z,143
2022-10-13T19:11:59.358Z,172
2022-10-13T19:14:59.345Z,142
2022-10-13T19:17:59.173Z,173
2022-10-13T19:19:59.297Z,159
2022-10-13T19:22:59.182Z,120
2022-10-13T19:24:59.360Z,176
2022-10-13T19:27:59.176Z,136
2022-10-13T19:30:14.597Z,142
2022-10-13T19:31:59.248Z,124
2022-10-13T19:34:59.209Z,137
2022-10-13T19:36:59.240Z,138
2022-10-13T19:39:59.209Z,124
2022-10-13T19:41:59.216Z,165
2022-10-13T19:44:59.215Z,115
2022-10-13T19:47:59.194Z,143
2022-10-13T19:50:59.194Z,207
2022-10-13T19:52:59.239Z,165
2022-10-13T19:55:59.214Z,169
2022-10-13T19:58:59.232Z,155
2022-10-13T20:01:00.670Z,159
2022-10-13T20:03:59.178Z,145
2022-10-13T20:06:59.180Z,207
2022-10-13T20:08:59.203Z,146
2022-10-13T20:11:59.242Z,144
2022-10-13T20:14:59.228Z,153
2022-10-13T20:16:59.214Z,115
2022-10-13T20:19:59.246Z,118
2022-10-13T20:22:59.185Z,147
2022-10-13T20:24:59.240Z,110
2022-10-13T20:27:59.232Z,150
2022-10-13T20:30:59.221Z,133
2022-10-13T20:32:59.228Z,129
2022-10-13T20:35:59.226Z,117
2022-10-13T20:38:59.200Z,151
2022-10-13T20:40:59.231Z,108
2022-10-13T20:43:59.267Z,131
2022-10-13T20:46:59.219Z,116
2022-10-13T20:49:11.232Z,122
2022-10-13T20:51:59.201Z,100
2022-10-13T20:54:59.211Z,111
2022-10-13T20:56:59.249Z,138
2022-10-13T20:58:59.230Z,117
2022-10-13T21:01:59.242Z,145
2022-10-13T21:04:59.217Z,109
2022-10-13T21:07:59.200Z,131
2022-10-13T21:09:59.229Z,145
2022-10-13T21:12:59.195Z,111
2022-10-13T21:14:59.206Z,104
2022-10-13T21:16:59.215Z,106
2022-10-13T21:18:59.229Z,108
2022-10-13T21:21:59.270Z,103
2022-10-13T21:24:59.215Z,90
2022-10-13T21:26:59.285Z,113
2022-10-13T21:29:59.453Z,127
2022-10-13T21:32:59.192Z,85
2022-10-13T21:34:59.260Z,119
2022-10-13T21:37:59.355Z,122
2022-10-13T21:40:59.343Z,132
2022-10-13T21:43:59.283Z,129
2022-10-13T21:46:59.618Z,110
2022-10-13T21:48:59.918Z,120
2022-10-13T21:51:59.304Z,92
2022-10-13T21:54:59.220Z,132
2022-10-13T21:58:02.946Z,125
2022-10-13T21:59:59.409Z,97
2022-10-13T22:02:59.180Z,107
2022-10-13T22:05:59.274Z,70
2022-10-13T22:08:59.306Z,121
2022-10-13T22:11:59.218Z,76
2022-10-13T22:13:59.383Z,104
2022-10-13T22:16:59.239Z,100
2022-10-13T22:18:59.256Z,86
2022-10-13T22:20:59.589Z,140
2022-10-13T22:23:59.228Z,123
2022-10-13T22:25:59.269Z,99
2022-10-13T22:27:59.368Z,101
2022-10-13T22:32:59.246Z,87
2022-10-13T22:34:59.353Z,103
2022-10-13T22:37:59.300Z,90
2022-10-13T22:40:59.358Z,89
2022-10-13T22:42:59.486Z,95
2022-10-13T22:45:59.238Z,119
2022-10-13T22:48:00.155Z,97
2022-10-13T22:50:59.281Z,91
2022-10-13T22:53:59.234Z,76
2022-10-13T22:55:59.335Z,78
2022-10-13T22:58:59.267Z,85
2022-10-13T23:01:06.514Z,132
2022-10-13T23:02:59.360Z,128
2022-10-13T23:05:59.392Z,121
2022-10-13T23:08:59.766Z,127
2022-10-13T23:11:59.997Z,117
2022-10-13T23:14:59.491Z,150
2022-10-13T23:17:59.207Z,130
2022-10-13T23:19:59.271Z,116
2022-10-13T23:22:59.235Z,106
2022-10-13T23:24:59.231Z,145
2022-10-13T23:27:59.381Z,98
2022-10-13T23:30:59.263Z,70
2022-10-13T23:33:59.221Z,112
2022-10-13T23:35:59.424Z,124
2022-10-13T23:38:59.257Z,94
2022-10-13T23:41:59.275Z,136
2022-10-13T23:43:59.313Z,120
2022-10-13T23:46:59.437Z,86
2022-10-13T23:49:59.247Z,90
2022-10-13T23:51:59.468Z,86
2022-10-13T23:54:59.350Z,96
2022-10-13T23:57:59.239Z,120
2022-10-13T23:59:59.254Z,101
